Time;durP1;ratioP1;P1;durP2;ratioP2;P2;SDS_P1;SDS_P2;PMS_P1;PMS_P2;Temp;Humidity;BMP_temperature;BMP_pressure;BME280_temperature;BME280_humidity;BME280_pressure;Samples;Min_cycle;Max_cycle;Signal;HPM_P1;HPM_P2
2023/04/09 00:02:15;;;;;;;5.32;1.35;;;12.80;56.60;;;;;;7400035;19;19951;-72
2023/04/09 00:04:41;;;;;;;4.45;1.02;;;12.80;57.10;;;;;;7403262;19;19915;-71
2023/04/09 00:07:07;;;;;;;3.05;0.82;;;12.80;57.20;;;;;;7400542;19;19929;-72
2023/04/09 00:09:33;;;;;;;3.58;0.85;;;12.80;57.50;;;;;;7405413;19;19914;-71
2023/04/09 00:11:59;;;;;;;3.40;1.10;;;12.80;57.30;;;;;;7401604;19;19928;-72
2023/04/09 00:14:24;;;;;;;3.08;0.85;;;12.90;57.10;;;;;;7402125;19;19939;-72
2023/04/09 00:16:50;;;;;;;4.00;1.23;;;13.00;57.20;;;;;;7402593;19;19951;-73
2023/04/09 00:19:16;;;;;;;2.28;0.73;;;13.10;56.60;;;;;;7400870;19;19929;-73
2023/04/09 00:21:42;;;;;;;2.97;0.90;;;13.20;56.40;;;;;;7400301;19;19954;-72
2023/04/09 00:24:07;;;;;;;5.07;0.85;;;13.20;55.80;;;;;;7400818;19;19919;-71
2023/04/09 00:26:33;;;;;;;2.60;0.77;;;13.10;56.00;;;;;;7400182;19;19910;-72
2023/04/09 00:28:59;;;;;;;2.42;0.70;;;13.00;55.90;;;;;;7401571;19;19922;-72
2023/04/09 00:31:25;;;;;;;1.35;0.40;;;13.00;56.00;;;;;;7396934;19;20497;-73
2023/04/09 00:33:51;;;;;;;3.92;0.95;;;13.00;56.00;;;;;;7403680;19;19995;-72
2023/04/09 00:36:17;;;;;;;2.58;0.63;;;13.00;56.10;;;;;;7399051;19;19915;-71
2023/04/09 00:38:42;;;;;;;3.08;0.85;;;12.90;56.20;;;;;;7402445;19;19919;-70
2023/04/09 00:41:08;;;;;;;2.70;0.85;;;12.90;56.20;;;;;;7347515;19;19919;-71
2023/04/09 00:43:34;;;;;;;3.20;0.70;;;12.90;56.10;;;;;;7403806;19;20767;-72
2023/04/09 00:46:01;;;;;;;3.05;0.80;;;12.90;56.10;;;;;;7399328;19;19918;-71
2023/04/09 00:48:28;;;;;;;2.80;0.85;;;12.90;55.80;;;;;;7402585;19;19938;-71
2023/04/09 00:50:54;;;;;;;;;;;13.00;56.00;;;;;;7406080;19;20018;-72
2023/04/09 00:53:20;;;;;;;2.85;0.70;;;13.00;56.00;;;;;;7397914;19;20354;-72
2023/04/09 00:55:46;;;;;;;3.25;0.60;;;12.90;56.10;;;;;;7401383;19;19914;-71
2023/04/09 00:58:13;;;;;;;3.38;0.40;;;13.00;56.00;;;;;;7399376;19;19923;-71
2023/04/09 01:00:38;;;;;;;2.10;0.70;;;13.00;54.30;;;;;;7402913;19;20276;-72
2023/04/09 01:03:05;;;;;;;2.70;0.80;;;13.20;53.50;;;;;;7401629;19;19918;-71
2023/04/09 01:05:51;;;;;;;2.05;0.45;;;13.30;53.90;;;;;;7403542;19;19937;-71
2023/04/09 01:08:45;;;;;;;2.80;0.63;;;13.40;51.40;;;;;;7399858;19;20368;-72
2023/04/09 01:11:14;;;;;;;1.83;0.40;;;13.60;50.70;;;;;;7402926;19;19930;-72
2023/04/09 01:13:49;;;;;;;3.03;0.70;;;13.60;50.20;;;;;;7399950;19;19910;-71
2023/04/09 01:16:18;;;;;;;2.70;0.65;;;13.70;50.20;;;;;;7398135;19;20358;-72
2023/04/09 01:18:55;;;;;;;0.93;0.28;;;13.70;49.80;;;;;;7403030;19;19922;-72
2023/04/09 01:21:28;;;;;;;2.55;0.47;;;13.80;49.40;;;;;;7401561;19;19921;-71
2023/04/09 01:24:19;;;;;;;;;;;13.80;48.80;;;;;;7403184;19;19915;-71
2023/04/09 01:27:06;;;;;;;2.67;0.55;;;13.90;48.40;;;;;;7399824;19;19931;-72
2023/04/09 01:29:44;;;;;;;2.28;0.68;;;13.90;48.80;;;;;;7400482;19;19922;-72
2023/04/09 01:32:11;;;;;;;2.28;0.38;;;13.80;48.80;;;;;;7400996;19;20426;-71
2023/04/09 01:34:37;;;;;;;1.70;0.68;;;13.90;48.90;;;;;;7403494;19;20324;-72
2023/04/09 01:37:05;;;;;;;3.45;0.70;;;13.80;48.60;;;;;;7398493;19;19970;-72
2023/04/09 01:39:31;;;;;;;2.15;0.40;;;13.80;48.60;;;;;;7401291;19;19922;-72
2023/04/09 01:41:58;;;;;;;2.05;0.50;;;13.80;48.00;;;;;;7401518;19;19918;-71
2023/04/09 01:44:25;;;;;;;2.30;0.50;;;13.80;47.80;;;;;;7401633;19;19922;-72
2023/04/09 01:46:50;;;;;;;;;;;13.90;47.90;;;;;;7403072;19;19918;-71
2023/04/09 01:49:17;;;;;;;3.60;0.57;;;13.90;47.30;;;;;;7401343;19;19933;-71
2023/04/09 01:51:43;;;;;;;2.17;0.45;;;14.00;46.90;;;;;;7402151;19;19926;-72
2023/04/09 01:54:09;;;;;;;1.17;0.40;;;14.00;46.60;;;;;;7399089;19;20029;-71
2023/04/09 01:56:52;;;;;;;2.58;0.70;;;14.00;46.90;;;;;;7398050;19;19926;-71
2023/04/09 01:59:18;;;;;;;2.78;0.52;;;13.90;47.00;;;;;;7398979;19;19923;-72
2023/04/09 02:01:56;;;;;;;3.10;0.57;;;13.80;47.30;;;;;;7400129;19;19929;-71
2023/04/09 02:04:34;;;;;;;2.33;0.70;;;13.80;48.10;;;;;;7398422;19;20379;-72
2023/04/09 02:07:09;;;;;;;4.03;0.50;;;13.80;49.00;;;;;;7400084;19;19995;-71
2023/04/09 02:09:38;;;;;;;2.97;0.77;;;13.90;48.40;;;;;;7401357;19;19914;-71
2023/04/09 02:12:08;;;;;;;3.65;1.08;;;13.80;48.50;;;;;;7399462;19;20301;-71
2023/04/09 02:14:36;;;;;;;3.08;1.20;;;13.70;52.20;;;;;;7400009;19;20270;-72
2023/04/09 02:17:02;;;;;;;4.45;1.15;;;13.50;53.20;;;;;;7401664;19;19925;-71
2023/04/09 02:19:41;;;;;;;3.80;0.80;;;13.50;52.90;;;;;;7400421;19;20342;-70
2023/04/09 02:22:08;;;;;;;3.50;0.73;;;13.40;52.30;;;;;;7399079;19;19949;-72
2023/04/09 02:24:34;;;;;;;3.80;0.60;;;13.50;52.10;;;;;;7346178;19;19926;-72
2023/04/09 02:27:00;;;;;;;2.30;0.60;;;13.60;51.90;;;;;;7379689;19;20383;-72
2023/04/09 02:29:26;;;;;;;3.90;1.00;;;13.60;51.50;;;;;;7397397;19;20274;-71
2023/04/09 02:31:52;;;;;;;2.40;0.70;;;13.60;51.20;;;;;;7398768;19;19922;-71
2023/04/09 02:34:19;;;;;;;2.55;0.73;;;13.60;51.70;;;;;;7398041;19;19924;-72
2023/04/09 02:36:44;;;;;;;3.17;0.80;;;13.50;53.10;;;;;;7346947;19;19943;-72
2023/04/09 02:39:10;;;;;;;2.88;0.73;;;13.30;53.90;;;;;;7397359;19;19922;-71
2023/04/09 02:41:36;;;;;;;2.80;0.80;;;13.20;54.10;;;;;;7401407;19;19979;-71
2023/04/09 02:44:02;;;;;;;4.43;1.17;;;13.10;53.80;;;;;;7400237;19;19923;-71
2023/04/09 02:46:27;;;;;;;3.20;1.00;;;13.00;55.00;;;;;;7401225;19;20378;-71
2023/04/09 02:48:53;;;;;;;3.55;1.13;;;13.00;56.20;;;;;;7400979;19;20852;-72
2023/04/09 02:51:20;;;;;;;5.28;1.55;;;13.00;57.10;;;;;;7395624;19;19958;-72
2023/04/09 02:53:46;;;;;;;;;;;13.00;57.20;;;;;;7399133;19;20405;-71
2023/04/09 02:56:11;;;;;;;5.32;1.55;;;13.00;55.60;;;;;;7396414;19;19938;-72
2023/04/09 02:58:37;;;;;;;4.72;1.42;;;13.00;56.30;;;;;;7396475;19;19937;-72
2023/04/09 03:01:03;;;;;;;3.08;1.35;;;13.10;56.90;;;;;;7398090;19;20723;-72
2023/04/09 03:03:29;;;;;;;3.95;1.15;;;13.10;54.70;;;;;;7396519;19;19918;-71
2023/04/09 03:05:56;;;;;;;3.80;1.10;;;13.00;55.60;;;;;;7400427;19;19907;-72
2023/04/09 03:08:21;;;;;;;5.03;1.27;;;13.20;53.30;;;;;;7397298;19;20256;-71
2023/04/09 03:10:47;;;;;;;3.58;0.80;;;13.20;52.60;;;;;;7404786;19;19925;-71
2023/04/09 03:13:13;;;;;;;3.55;0.88;;;13.30;52.10;;;;;;7405103;19;19918;-71
2023/04/09 03:15:39;;;;;;;3.10;0.80;;;13.30;53.70;;;;;;7406257;19;19918;-71
2023/04/09 03:18:04;;;;;;;3.17;0.90;;;13.40;52.00;;;;;;7404784;19;19938;-72
2023/04/09 03:20:30;;;;;;;3.67;0.77;;;13.30;51.50;;;;;;7407614;19;19938;-72
2023/04/09 03:22:56;;;;;;;4.03;0.90;;;13.30;53.20;;;;;;7405420;19;20367;-71
2023/04/09 03:25:22;;;;;;;3.90;1.08;;;13.30;54.40;;;;;;7403616;19;19970;-72
2023/04/09 03:27:47;;;;;;;3.33;1.00;;;13.20;55.20;;;;;;7405334;19;20563;-71
2023/04/09 03:30:13;;;;;;;4.78;0.65;;;13.20;52.50;;;;;;7401530;19;19974;-72
2023/04/09 03:32:39;;;;;;;3.50;0.70;;;13.20;50.90;;;;;;7401950;19;19922;-71
2023/04/09 03:35:05;;;;;;;2.10;0.50;;;13.40;50.80;;;;;;7401537;19;19933;-72
2023/04/09 03:37:31;;;;;;;2.22;0.50;;;13.50;50.40;;;;;;7403494;19;19919;-72
2023/04/09 03:39:56;;;;;;;4.70;1.00;;;13.60;49.80;;;;;;7404451;19;19915;-72
2023/04/09 03:42:22;;;;;;;3.55;0.93;;;13.60;50.40;;;;;;7405122;19;19949;-72
2023/04/09 03:44:48;;;;;;;2.95;0.77;;;13.50;50.90;;;;;;7404291;19;19983;-71
2023/04/09 03:47:14;;;;;;;1.42;0.52;;;13.70;49.20;;;;;;7405058;19;19918;-72
2023/04/09 03:49:40;;;;;;;3.42;0.80;;;13.70;48.80;;;;;;7402895;19;19950;-72
2023/04/09 03:52:06;;;;;;;2.70;0.70;;;13.60;49.00;;;;;;7403045;19;19970;-72
2023/04/09 03:54:31;;;;;;;2.58;0.93;;;13.50;50.00;;;;;;7403321;19;19982;-71
2023/04/09 03:56:57;;;;;;;3.10;0.80;;;13.50;48.70;;;;;;7405667;19;19923;-72
2023/04/09 03:59:23;;;;;;;1.80;0.50;;;13.40;50.60;;;;;;7400815;19;19930;-72
2023/04/09 04:01:49;;;;;;;2.83;0.50;;;13.60;48.90;;;;;;7406123;19;20007;-71
2023/04/09 04:04:15;;;;;;;3.05;0.90;;;13.60;48.70;;;;;;7400464;19;20349;-72
2023/04/09 04:06:41;;;;;;;1.58;0.60;;;13.60;48.80;;;;;;7402505;19;19922;-71
2023/04/09 04:09:06;;;;;;;2.28;0.70;;;13.70;48.00;;;;;;7400174;19;19930;-72
2023/04/09 04:11:32;;;;;;;2.55;0.45;;;13.80;48.40;;;;;;7403888;19;19929;-71
2023/04/09 04:13:58;;;;;;;3.83;0.70;;;13.80;48.30;;;;;;7405264;19;19982;-72
2023/04/09 04:16:24;;;;;;;2.35;0.65;;;13.60;48.50;;;;;;7403987;19;19981;-70
2023/04/09 04:18:49;;;;;;;2.42;0.50;;;13.60;49.10;;;;;;7403911;19;19922;-71
2023/04/09 04:21:16;;;;;;;2.42;0.70;;;13.60;47.80;;;;;;7399079;19;19910;-71
2023/04/09 04:23:42;;;;;;;1.98;0.52;;;13.50;48.30;;;;;;7401714;19;19922;-72
2023/04/09 04:26:09;;;;;;;2.85;0.52;;;13.70;47.20;;;;;;7403487;19;20785;-71
2023/04/09 04:28:39;;;;;;;1.92;0.50;;;13.70;48.20;;;;;;7403225;19;20000;-71
2023/04/09 04:31:09;;;;;;;1.73;0.50;;;13.90;47.40;;;;;;7399527;19;19926;-71
2023/04/09 04:33:36;;;;;;;2.17;0.50;;;13.90;47.10;;;;;;7404053;19;19923;-71
2023/04/09 04:36:10;;;;;;;1.67;0.50;;;13.90;47.60;;;;;;7405197;19;19907;-71
2023/04/09 04:38:37;;;;;;;2.03;0.60;;;13.80;48.60;;;;;;7399450;19;19930;-72
2023/04/09 04:41:03;;;;;;;3.35;0.65;;;13.80;47.80;;;;;;7400236;19;19935;-71
2023/04/09 04:43:29;;;;;;;4.53;0.90;;;13.80;49.00;;;;;;7403773;19;20504;-72
2023/04/09 04:45:55;;;;;;;3.30;1.20;;;13.70;49.10;;;;;;7405466;19;19922;-72
2023/04/09 04:48:21;;;;;;;2.83;0.90;;;13.70;51.30;;;;;;7398485;19;19918;-72
2023/04/09 04:50:55;;;;;;;3.53;0.90;;;13.60;50.20;;;;;;7401971;19;19918;-72
2023/04/09 04:53:20;;;;;;;4.72;0.85;;;13.50;51.30;;;;;;7398763;19;20354;-71
2023/04/09 04:55:46;;;;;;;2.92;0.50;;;13.50;49.20;;;;;;7402673;19;19918;-72
2023/04/09 04:58:12;;;;;;;3.83;1.00;;;13.60;49.30;;;;;;7401083;19;19998;-73
2023/04/09 05:00:38;;;;;;;3.72;1.00;;;13.50;51.50;;;;;;7399106;19;19921;-72
2023/04/09 05:03:03;;;;;;;1.58;0.50;;;13.50;49.10;;;;;;7402713;19;19930;-72
2023/04/09 05:05:29;;;;;;;2.28;0.70;;;13.50;48.20;;;;;;7401551;19;19978;-70
2023/04/09 05:07:55;;;;;;;3.63;1.25;;;13.60;48.00;;;;;;7400389;19;20570;-71
2023/04/09 05:10:20;;;;;;;1.10;0.40;;;13.70;47.70;;;;;;7401215;19;19911;-71
2023/04/09 05:12:46;;;;;;;1.58;0.50;;;13.80;47.20;;;;;;7400986;19;20356;-71
2023/04/09 05:15:12;;;;;;;3.20;1.05;;;13.90;47.00;;;;;;7402504;19;20231;-71
2023/04/09 05:17:38;;;;;;;3.40;0.77;;;13.90;47.80;;;;;;7401846;19;20514;-71
2023/04/09 05:20:04;;;;;;;2.45;0.80;;;13.90;47.80;;;;;;7398945;19;19919;-70
2023/04/09 05:22:29;;;;;;;2.00;0.60;;;13.80;48.00;;;;;;7402684;19;19974;-71
2023/04/09 05:24:55;;;;;;;2.90;0.90;;;13.90;47.40;;;;;;7402327;19;20339;-71
2023/04/09 05:27:23;;;;;;;4.00;1.30;;;13.90;48.30;;;;;;7401408;19;20342;-71
2023/04/09 05:29:48;;;;;;;3.95;1.33;;;13.70;52.20;;;;;;7400378;19;20308;-71
2023/04/09 05:32:14;;;;;;;3.95;1.10;;;13.40;54.00;;;;;;7401405;19;19939;-71
2023/04/09 05:34:41;;;;;;;4.78;1.48;;;13.30;52.90;;;;;;7401845;19;19974;-71
2023/04/09 05:37:07;;;;;;;3.40;1.27;;;13.20;55.20;;;;;;7399776;19;19944;-70
2023/04/09 05:39:32;;;;;;;6.35;1.20;;;13.20;54.20;;;;;;7402005;19;19944;-71
2023/04/09 05:41:58;;;;;;;2.42;0.80;;;13.10;54.70;;;;;;7400446;19;20059;-72
2023/04/09 05:44:24;;;;;;;2.40;0.63;;;13.20;47.80;;;;;;7401795;19;19922;-71
2023/04/09 05:46:50;;;;;;;4.40;1.33;;;13.40;47.20;;;;;;7398781;19;20304;-72
2023/04/09 05:49:16;;;;;;;3.72;1.33;;;13.60;46.80;;;;;;7402342;19;20340;-71
2023/04/09 05:51:42;;;;;;;2.80;0.80;;;13.60;47.00;;;;;;7400824;19;19956;-70
2023/04/09 05:54:08;;;;;;;3.47;1.00;;;13.60;48.10;;;;;;7398122;19;19919;-71
2023/04/09 05:56:34;;;;;;;3.28;0.65;;;13.70;48.90;;;;;;7400872;19;19974;-71
2023/04/09 05:59:00;;;;;;;3.10;0.82;;;13.80;47.90;;;;;;7379017;19;19996;-70
2023/04/09 06:01:26;;;;;;;2.90;0.70;;;13.70;48.30;;;;;;7400002;19;20441;-72
2023/04/09 06:03:52;;;;;;;2.35;0.60;;;13.80;47.60;;;;;;7398745;19;19922;-70
2023/04/09 06:06:18;;;;;;;4.93;1.25;;;13.90;46.40;;;;;;7396344;19;19932;-69
2023/04/09 06:08:44;;;;;;;8.00;1.50;;;13.80;50.90;;;;;;7370393;19;19923;-70
2023/04/09 06:11:10;;;;;;;5.70;1.77;;;13.80;52.80;;;;;;7397662;19;19914;-71
2023/04/09 06:13:36;;;;;;;7.38;2.17;;;13.70;53.30;;;;;;7402237;19;19922;-72
2023/04/09 06:16:07;;;;;;;5.75;1.80;;;13.70;53.30;;;;;;7397590;19;19907;-70
2023/04/09 06:18:33;;;;;;;4.97;1.75;;;13.70;53.20;;;;;;7396389;19;19961;-72
2023/04/09 06:21:05;;;;;;;4.75;1.30;;;13.70;54.20;;;;;;7399263;19;19918;-71
2023/04/09 06:23:32;;;;;;;5.13;1.90;;;13.70;54.30;;;;;;7400118;19;20287;-72
2023/04/09 06:25:59;;;;;;;4.20;1.20;;;13.80;54.80;;;;;;7399106;19;19927;-71
2023/04/09 06:28:25;;;;;;;3.72;1.00;;;13.90;53.90;;;;;;7397858;19;19982;-71
2023/04/09 06:30:52;;;;;;;3.65;1.23;;;13.90;54.50;;;;;;7397448;19;19922;-71
2023/04/09 06:33:19;;;;;;;3.72;1.10;;;14.10;54.00;;;;;;7399419;19;19981;-71
2023/04/09 06:35:45;;;;;;;;;;;14.10;55.10;;;;;;7401301;19;19923;-72
2023/04/09 06:38:11;;;;;;;7.18;1.50;;;14.10;56.20;;;;;;7398549;19;19925;-71
2023/04/09 06:40:37;;;;;;;5.03;1.52;;;14.20;56.30;;;;;;7401856;19;19940;-70
2023/04/09 06:43:06;;;;;;;4.22;1.35;;;14.20;56.30;;;;;;7395810;19;20324;-71
2023/04/09 06:45:32;;;;;;;8.85;2.20;;;14.40;56.60;;;;;;7403094;19;19922;-69
2023/04/09 06:47:59;;;;;;;7.75;2.33;;;14.40;57.50;;;;;;7405489;19;19981;-69
2023/04/09 06:50:25;;;;;;;6.03;2.20;;;14.50;57.40;;;;;;7404037;19;19945;-70
2023/04/09 06:52:51;;;;;;;6.85;2.13;;;14.60;57.70;;;;;;7405403;19;20323;-70
2023/04/09 06:55:18;;;;;;;6.40;2.00;;;14.70;57.80;;;;;;7401947;19;19918;-70
2023/04/09 06:57:43;;;;;;;7.28;2.78;;;14.80;57.70;;;;;;7406688;19;19914;-69
2023/04/09 07:00:10;;;;;;;6.28;2.55;;;14.80;57.70;;;;;;7405049;19;20339;-70
2023/04/09 07:02:36;;;;;;;7.43;3.03;;;14.90;57.60;;;;;;7406354;19;19922;-71
2023/04/09 07:05:03;;;;;;;6.60;2.47;;;14.90;57.50;;;;;;7404250;19;19930;-70
2023/04/09 07:07:29;;;;;;;5.38;2.40;;;15.00;57.20;;;;;;7403934;19;19942;-70
2023/04/09 07:09:55;;;;;;;9.60;2.70;;;15.10;56.90;;;;;;7406195;19;19938;-71
2023/04/09 07:12:28;;;;;;;5.38;2.30;;;15.20;56.70;;;;;;7401295;19;19919;-70
2023/04/09 07:14:59;;;;;;;7.85;2.20;;;15.40;56.50;;;;;;7404214;19;19913;-70
2023/04/09 07:17:25;;;;;;;5.70;2.22;;;15.40;56.20;;;;;;7401219;19;19946;-70
2023/04/09 07:19:51;;;;;;;7.65;2.65;;;15.60;55.80;;;;;;7404829;19;20297;-70
2023/04/09 07:22:17;;;;;;;6.63;3.08;;;15.70;55.40;;;;;;7403067;19;20244;-70
2023/04/09 07:24:44;;;;;;;6.72;2.50;;;15.90;55.50;;;;;;7405546;19;19919;-71
2023/04/09 07:27:10;;;;;;;5.97;2.20;;;16.00;54.70;;;;;;7403904;19;19919;-71
2023/04/09 07:29:36;;;;;;;6.55;2.63;;;16.10;55.00;;;;;;7403347;19;20347;-71
2023/04/09 07:32:02;;;;;;;6.78;2.10;;;16.20;53.80;;;;;;7403516;19;20642;-71
2023/04/09 07:34:28;;;;;;;4.32;1.58;;;16.30;53.00;;;;;;7401750;19;19939;-70
2023/04/09 07:36:54;;;;;;;4.55;1.88;;;16.30;51.50;;;;;;7405209;19;19942;-71
2023/04/09 07:39:21;;;;;;;5.10;1.50;;;16.50;52.70;;;;;;7402232;19;19925;-70
2023/04/09 07:41:47;;;;;;;6.03;3.05;;;16.50;51.20;;;;;;7402235;19;19919;-70
2023/04/09 07:44:13;;;;;;;7.35;2.47;;;16.40;54.40;;;;;;7402162;19;19925;-70
2023/04/09 07:46:40;;;;;;;6.40;3.38;;;16.40;54.30;;;;;;7405863;19;20620;-70
2023/04/09 07:49:05;;;;;;;6.97;2.90;;;16.40;54.50;;;;;;7403303;19;20037;-70
2023/04/09 07:51:31;;;;;;;6.13;2.40;;;16.40;53.90;;;;;;7402683;19;19910;-70
2023/04/09 07:53:57;;;;;;;5.75;2.25;;;16.40;53.70;;;;;;7403931;19;19982;-70
2023/04/09 07:56:23;;;;;;;6.93;1.90;;;16.50;53.10;;;;;;7398793;19;19934;-70
2023/04/09 07:58:49;;;;;;;6.80;2.70;;;16.40;52.70;;;;;;7401001;19;19922;-71
2023/04/09 08:01:15;;;;;;;6.57;2.83;;;16.40;53.60;;;;;;7370164;19;19918;-69
2023/04/09 08:03:41;;;;;;;6.47;3.20;;;16.60;53.40;;;;;;7402925;19;19919;-71
2023/04/09 08:06:07;;;;;;;7.22;3.20;;;16.60;55.10;;;;;;7401697;19;21518;-71
2023/04/09 08:08:33;;;;;;;9.93;2.90;;;16.60;55.40;;;;;;7404745;19;19923;-70
2023/04/09 08:10:59;;;;;;;6.88;2.80;;;16.60;54.80;;;;;;7404007;19;19929;-71
2023/04/09 08:13:25;;;;;;;7.03;2.88;;;16.80;55.00;;;;;;7400975;19;19933;-71
2023/04/09 08:15:51;;;;;;;5.90;2.70;;;17.00;54.60;;;;;;7402690;19;19922;-71
2023/04/09 08:18:17;;;;;;;7.22;3.22;;;17.00;54.50;;;;;;7402849;19;19939;-71
2023/04/09 08:20:44;;;;;;;8.75;3.70;;;17.00;54.60;;;;;;7402743;19;19922;-71
2023/04/09 08:23:10;;;;;;;6.07;2.90;;;17.10;55.40;;;;;;7401619;19;20027;-70
2023/04/09 08:25:36;;;;;;;;;;;17.20;54.90;;;;;;7405182;19;20354;-73
2023/04/09 08:28:02;;;;;;;7.20;2.80;;;17.30;55.10;;;;;;7404476;19;19922;-71
2023/04/09 08:30:27;;;;;;;6.78;3.00;;;17.30;54.60;;;;;;7401777;19;19932;-72
2023/04/09 08:32:53;;;;;;;6.60;2.67;;;17.20;53.50;;;;;;7403951;19;19982;-70
2023/04/09 08:35:19;;;;;;;6.80;2.85;;;17.20;52.30;;;;;;7402291;19;19911;-73
2023/04/09 08:37:45;;;;;;;8.73;2.58;;;17.60;52.60;;;;;;7403715;19;19907;-72
2023/04/09 08:40:11;;;;;;;6.05;2.90;;;18.50;50.20;;;;;;7400145;19;19932;-71
2023/04/09 08:42:43;;;;;;;6.25;2.30;;;18.80;49.00;;;;;;7402686;19;19999;-72
2023/04/09 08:45:10;;;;;;;6.28;2.58;;;19.30;47.70;;;;;;7398453;19;19926;-71
2023/04/09 08:47:37;;;;;;;7.47;3.25;;;20.00;46.40;;;;;;7400608;19;19994;-71
2023/04/09 08:50:04;;;;;;;5.55;2.47;;;20.90;46.20;;;;;;7403413;19;19918;-71
2023/04/09 08:52:32;;;;;;;6.00;2.20;;;21.70;44.90;;;;;;7403135;19;19910;-71
2023/04/09 08:54:58;;;;;;;5.75;2.30;;;22.00;43.30;;;;;;7403271;19;19985;-71
2023/04/09 08:57:24;;;;;;;7.05;2.38;;;22.10;43.50;;;;;;7401318;19;20443;-71
2023/04/09 08:59:49;;;;;;;5.82;2.40;;;21.90;43.00;;;;;;7400449;19;19930;-72
2023/04/09 09:02:15;;;;;;;5.10;2.33;;;21.90;43.00;;;;;;7390006;19;19954;-72
2023/04/09 09:04:46;;;;;;;6.85;2.05;;;21.80;43.20;;;;;;7393992;19;19933;-72
2023/04/09 09:07:13;;;;;;;6.85;2.00;;;22.40;42.80;;;;;;7387209;19;19918;-75
2023/04/09 09:09:52;;;;;;;5.30;2.10;;;21.40;42.30;;;;;;7396034;19;19915;-75
2023/04/09 09:12:40;;;;;;;5.43;1.45;;;21.20;42.70;;;;;;7384832;19;19938;-73
2023/04/09 09:15:25;;;;;;;3.63;1.65;;;21.30;41.70;;;;;;7401965;19;19910;-74
2023/04/09 09:17:56;;;;;;;4.70;1.77;;;22.50;39.80;;;;;;7363454;19;19918;-73
2023/04/09 09:20:23;;;;;;;3.65;1.20;;;22.50;39.30;;;;;;7392261;19;20009;-73
2023/04/09 09:22:51;;;;;;;5.45;2.03;;;23.00;38.60;;;;;;7394777;19;19974;-73
2023/04/09 09:25:17;;;;;;;6.22;1.90;;;22.70;38.80;;;;;;7392302;19;19919;-73
2023/04/09 09:27:44;;;;;;;5.78;1.50;;;22.10;39.50;;;;;;7394425;19;19966;-73
2023/04/09 09:30:26;;;;;;;5.90;1.52;;;21.10;41.10;;;;;;7390221;19;19922;-74
2023/04/09 09:33:12;;;;;;;3.97;1.52;;;21.60;41.40;;;;;;7386666;19;19979;-73
2023/04/09 09:35:51;;;;;;;4.85;1.50;;;21.50;42.20;;;;;;7401092;19;20096;-74
2023/04/09 09:38:17;;;;;;;5.00;2.05;;;21.70;41.90;;;;;;7394779;19;19914;-74
2023/04/09 09:40:43;;;;;;;6.38;1.88;;;21.00;41.00;;;;;;7393410;19;19918;-74
2023/04/09 09:43:09;;;;;;;;;;;21.80;42.80;;;;;;7400984;19;19918;-74
2023/04/09 09:45:38;;;;;;;3.75;1.65;;;20.20;42.20;;;;;;7401353;19;19926;-73
2023/04/09 09:48:05;;;;;;;4.20;1.65;;;21.60;42.20;;;;;;7391495;19;19972;-73
2023/04/09 09:50:33;;;;;;;4.47;2.58;;;20.80;42.50;;;;;;7392724;19;20258;-73
2023/04/09 09:53:06;;;;;;;4.68;1.63;;;20.40;43.80;;;;;;7396867;19;19943;-73
2023/04/09 09:55:36;;;;;;;5.57;1.88;;;21.30;43.60;;;;;;7389222;19;19923;-72
2023/04/09 09:58:16;;;;;;;5.28;1.20;;;22.10;43.40;;;;;;7392172;19;19997;-73
2023/04/09 10:00:45;;;;;;;5.15;1.40;;;20.60;45.20;;;;;;7398399;19;19996;-72
2023/04/09 10:03:20;;;;;;;7.80;1.67;;;20.60;46.70;;;;;;7385248;19;19978;-72
2023/04/09 10:05:48;;;;;;;3.30;1.10;;;21.80;46.20;;;;;;7383035;19;19918;-72
2023/04/09 10:08:14;;;;;;;4.10;1.20;;;22.00;46.00;;;;;;7393545;19;20706;-73
2023/04/09 10:10:41;;;;;;;3.75;1.20;;;21.70;48.00;;;;;;7397868;19;19929;-72
2023/04/09 10:13:09;;;;;;;;;;;21.40;48.60;;;;;;7396514;19;20301;-72
2023/04/09 10:15:35;;;;;;;3.35;1.20;;;20.30;49.30;;;;;;7392129;19;19914;-72
2023/04/09 10:18:01;;;;;;;3.13;1.27;;;20.60;50.10;;;;;;7392397;19;20576;-72
2023/04/09 10:20:33;;;;;;;3.72;1.60;;;19.70;49.00;;;;;;7404347;19;19914;-72
2023/04/09 10:23:06;;;;;;;4.47;0.98;;;19.80;49.10;;;;;;7408202;19;19922;-71
2023/04/09 10:25:32;;;;;;;3.08;1.23;;;19.30;51.10;;;;;;7404398;19;19926;-73
2023/04/09 10:28:01;;;;;;;;;;;18.90;50.50;;;;;;7408505;19;19918;-74
2023/04/09 10:30:45;;;;;;;2.42;1.23;;;19.50;49.60;;;;;;7362953;19;19918;-73
2023/04/09 10:33:13;;;;;;;2.20;0.80;;;19.80;47.70;;;;;;7401543;19;20335;-73
2023/04/09 10:35:39;;;;;;;4.25;0.73;;;19.30;43.80;;;;;;7398475;19;19948;-69
2023/04/09 10:38:09;;;;;;;4.07;1.02;;;19.80;48.10;;;;;;7403570;19;19953;-71
2023/04/09 10:40:55;;;;;;;2.58;0.80;;;19.10;48.00;;;;;;7349893;19;19910;-71
2023/04/09 10:43:22;;;;;;;3.45;1.20;;;20.00;43.80;;;;;;7393868;19;20377;-70
2023/04/09 10:45:52;;;;;;;4.57;0.93;;;20.40;43.10;;;;;;7394758;19;19951;-70
2023/04/09 10:48:19;;;;;;;5.55;1.27;;;19.60;43.30;;;;;;7391520;19;19967;-70
2023/04/09 10:50:45;;;;;;;3.17;0.90;;;20.50;40.90;;;;;;7395646;19;19982;-70
2023/04/09 10:53:22;;;;;;;4.97;1.02;;;21.20;41.40;;;;;;7381866;19;20422;-70
2023/04/09 10:55:50;;;;;;;3.83;1.00;;;21.10;41.10;;;;;;7354989;19;19914;-70
2023/04/09 10:58:16;;;;;;;2.50;0.93;;;20.30;43.00;;;;;;7399259;19;19934;-70
2023/04/09 11:00:45;;;;;;;3.65;0.90;;;19.90;42.30;;;;;;7385141;19;19914;-70
2023/04/09 11:03:28;;;;;;;2.55;0.80;;;19.50;42.00;;;;;;7392437;19;20001;-71
2023/04/09 11:06:00;;;;;;;4.63;1.08;;;19.90;40.20;;;;;;7405478;19;19919;-71
2023/04/09 11:08:31;;;;;;;3.20;0.93;;;20.80;39.40;;;;;;7395653;19;19955;-68
2023/04/09 11:10:59;;;;;;;2.60;1.10;;;21.20;39.40;;;;;;7397243;19;19950;-71
2023/04/09 11:13:26;;;;;;;3.05;1.73;;;20.20;37.60;;;;;;7393916;19;20271;-71
2023/04/09 11:15:52;;;;;;;;;;;20.70;39.10;;;;;;7403434;19;19982;-71
2023/04/09 11:18:25;;;;;;;3.55;1.35;;;19.60;39.80;;;;;;7403186;19;20266;-73
2023/04/09 11:21:00;;;;;;;2.50;0.82;;;20.30;39.30;;;;;;7395030;19;19918;-72
2023/04/09 11:23:27;;;;;;;3.92;1.02;;;20.00;39.70;;;;;;7400033;19;19932;-71
2023/04/09 11:25:53;;;;;;;4.20;1.00;;;20.40;40.60;;;;;;7387921;19;19922;-71
2023/04/09 11:28:19;;;;;;;4.28;1.02;;;20.90;41.00;;;;;;7378779;19;19923;-72
2023/04/09 11:30:46;;;;;;;2.95;1.00;;;20.90;41.40;;;;;;7402869;19;19923;-72
2023/04/09 11:33:13;;;;;;;3.88;1.45;;;21.10;40.90;;;;;;7403761;19;20268;-72
2023/04/09 11:35:39;;;;;;;3.80;1.80;;;21.30;39.80;;;;;;7402960;19;20643;-71
2023/04/09 11:38:09;;;;;;;1.80;0.85;;;21.30;39.10;;;;;;7383219;19;19922;-71
2023/04/09 11:40:36;;;;;;;3.38;0.98;;;21.40;38.00;;;;;;7404811;19;19974;-71
2023/04/09 11:43:02;;;;;;;3.42;1.77;;;21.90;37.20;;;;;;7401824;19;20231;-73
2023/04/09 11:45:30;;;;;;;3.88;1.30;;;22.20;36.70;;;;;;7403784;19;19930;-72
2023/04/09 11:47:56;;;;;;;6.03;1.70;;;22.50;36.00;;;;;;7404653;19;19919;-71
2023/04/09 11:50:22;;;;;;;3.05;1.10;;;23.00;38.50;;;;;;7400915;19;19942;-71
2023/04/09 11:52:49;;;;;;;3.90;1.33;;;21.70;38.40;;;;;;7401658;19;19919;-73
2023/04/09 11:55:28;;;;;;;3.90;1.05;;;21.10;40.10;;;;;;7398341;19;19923;-71
2023/04/09 11:57:59;;;;;;;5.15;1.30;;;21.50;39.70;;;;;;7402491;19;19915;-71
2023/04/09 12:00:26;;;;;;;2.95;1.48;;;20.60;41.40;;;;;;7378966;19;20860;-71
2023/04/09 12:03:03;;;;;;;5.47;1.33;;;20.40;41.90;;;;;;7397167;19;19922;-72
2023/04/09 12:05:33;;;;;;;4.90;1.30;;;20.30;39.00;;;;;;7399580;19;19943;-71
2023/04/09 12:08:03;;;;;;;3.67;1.52;;;21.20;39.60;;;;;;7395670;19;20343;-71
2023/04/09 12:10:31;;;;;;;4.03;1.33;;;21.10;42.70;;;;;;7402253;19;19945;-71
2023/04/09 12:13:16;;;;;;;4.82;1.48;;;21.70;42.90;;;;;;7398651;19;20098;-71
2023/04/09 12:15:44;;;;;;;5.03;1.52;;;22.40;43.00;;;;;;7397358;19;20343;-71
2023/04/09 12:18:11;;;;;;;4.70;1.55;;;22.00;43.00;;;;;;7401345;19;20036;-71
2023/04/09 12:20:40;;;;;;;3.65;1.50;;;21.40;42.70;;;;;;7403065;19;19935;-71
2023/04/09 12:23:07;;;;;;;3.15;1.20;;;21.90;42.80;;;;;;7401312;19;19918;-72
2023/04/09 12:25:35;;;;;;;4.95;1.85;;;21.90;43.60;;;;;;7401892;19;19915;-72
2023/04/09 12:28:02;;;;;;;3.85;1.42;;;21.40;45.20;;;;;;7403354;19;20382;-71
2023/04/09 12:30:28;;;;;;;4.28;1.55;;;22.20;43.80;;;;;;7398812;19;20280;-71
2023/04/09 12:32:54;;;;;;;5.88;1.95;;;21.80;42.70;;;;;;7403952;19;19942;-71
2023/04/09 12:35:21;;;;;;;5.10;1.50;;;22.00;42.70;;;;;;7400674;19;19922;-71
2023/04/09 12:37:47;;;;;;;3.70;1.23;;;22.30;42.40;;;;;;7402008;19;19939;-71
2023/04/09 12:40:13;;;;;;;3.10;1.42;;;22.90;43.20;;;;;;7399127;19;19952;-71
2023/04/09 12:42:40;;;;;;;3.97;1.45;;;22.90;42.80;;;;;;7400360;19;19982;-72
2023/04/09 12:45:11;;;;;;;4.35;1.33;;;22.50;42.30;;;;;;7395576;19;19945;-71
2023/04/09 12:47:38;;;;;;;5.15;1.33;;;22.20;44.30;;;;;;7397517;19;20005;-71
2023/04/09 12:50:06;;;;;;;4.63;1.77;;;22.00;41.80;;;;;;7398344;19;19941;-72
2023/04/09 12:52:31;;;;;;;3.38;1.38;;;21.50;43.00;;;;;;7394747;19;20753;-72
2023/04/09 12:54:57;;;;;;;4.35;1.25;;;19.90;42.90;;;;;;7392879;19;19918;-71